sensor_id;sensor_type;location;lat;lon;timestamp;temperature;humidity
298;DHT22;133;49.626;9.680;2024-02-26T00:01:52;6.30;86.50
298;DHT22;133;49.626;9.680;2024-02-26T00:04:18;6.30;86.50
298;DHT22;133;49.626;9.680;2024-02-26T00:06:43;6.40;86.30
298;DHT22;133;49.626;9.680;2024-02-26T00:09:09;6.30;86.50
298;DHT22;133;49.626;9.680;2024-02-26T00:11:36;6.30;86.90
298;DHT22;133;49.626;9.680;2024-02-26T00:14:03;6.40;86.50
298;DHT22;133;49.626;9.680;2024-02-26T00:16:28;6.40;86.60
298;DHT22;133;49.626;9.680;2024-02-26T00:18:54;6.40;85.90
298;DHT22;133;49.626;9.680;2024-02-26T00:21:20;6.40;85.70
298;DHT22;133;49.626;9.680;2024-02-26T00:23:45;6.30;86.10
298;DHT22;133;49.626;9.680;2024-02-26T00:26:11;6.30;86.00
298;DHT22;133;49.626;9.680;2024-02-26T00:28:37;6.20;86.80
298;DHT22;133;49.626;9.680;2024-02-26T00:31:03;6.30;86.50
298;DHT22;133;49.626;9.680;2024-02-26T00:33:28;6.30;86.50
298;DHT22;133;49.626;9.680;2024-02-26T00:35:54;6.20;86.80
298;DHT22;133;49.626;9.680;2024-02-26T00:38:20;6.20;87.20
298;DHT22;133;49.626;9.680;2024-02-26T00:40:46;6.10;87.40
298;DHT22;133;49.626;9.680;2024-02-26T00:43:11;6.10;87.90
298;DHT22;133;49.626;9.680;2024-02-26T00:45:37;6.10;87.60
298;DHT22;133;49.626;9.680;2024-02-26T00:48:03;6.20;87.60
298;DHT22;133;49.626;9.680;2024-02-26T00:50:32;6.20;87.50
298;DHT22;133;49.626;9.680;2024-02-26T00:52:59;6.10;88.00
298;DHT22;133;49.626;9.680;2024-02-26T00:55:27;6.20;88.40
298;DHT22;133;49.626;9.680;2024-02-26T00:57:52;6.30;88.30
298;DHT22;133;49.626;9.680;2024-02-26T01:00:18;6.30;88.30
298;DHT22;133;49.626;9.680;2024-02-26T01:02:44;6.40;88.30
298;DHT22;133;49.626;9.680;2024-02-26T01:05:12;6.40;88.30
298;DHT22;133;49.626;9.680;2024-02-26T01:07:38;6.50;88.20
298;DHT22;133;49.626;9.680;2024-02-26T01:10:05;6.50;88.10
298;DHT22;133;49.626;9.680;2024-02-26T01:12:35;6.60;88.20
298;DHT22;133;49.626;9.680;2024-02-26T01:15:01;6.60;88.10
298;DHT22;133;49.626;9.680;2024-02-26T01:17:28;6.60;88.00
298;DHT22;133;49.626;9.680;2024-02-26T01:19:54;6.70;88.10
298;DHT22;133;49.626;9.680;2024-02-26T01:22:20;6.70;87.70
298;DHT22;133;49.626;9.680;2024-02-26T01:24:45;6.70;87.60
298;DHT22;133;49.626;9.680;2024-02-26T01:27:11;6.70;87.60
298;DHT22;133;49.626;9.680;2024-02-26T01:29:37;6.80;87.30
298;DHT22;133;49.626;9.680;2024-02-26T01:32:02;6.80;87.30
298;DHT22;133;49.626;9.680;2024-02-26T01:34:30;6.70;87.30
298;DHT22;133;49.626;9.680;2024-02-26T01:36:56;6.70;87.40
298;DHT22;133;49.626;9.680;2024-02-26T01:39:21;6.70;86.90
298;DHT22;133;49.626;9.680;2024-02-26T01:41:47;6.80;86.90
298;DHT22;133;49.626;9.680;2024-02-26T01:44:13;6.80;86.70
298;DHT22;133;49.626;9.680;2024-02-26T01:46:39;6.80;86.70
298;DHT22;133;49.626;9.680;2024-02-26T01:49:06;6.70;87.10
298;DHT22;133;49.626;9.680;2024-02-26T01:51:33;6.70;87.10
298;DHT22;133;49.626;9.680;2024-02-26T01:54:00;6.60;87.10
298;DHT22;133;49.626;9.680;2024-02-26T01:56:28;6.60;87.60
298;DHT22;133;49.626;9.680;2024-02-26T01:58:56;6.60;87.60
298;DHT22;133;49.626;9.680;2024-02-26T02:01:22;6.60;87.60
298;DHT22;133;49.626;9.680;2024-02-26T02:03:51;6.50;88.00
298;DHT22;133;49.626;9.680;2024-02-26T02:06:17;6.50;88.10
298;DHT22;133;49.626;9.680;2024-02-26T02:08:43;6.60;88.00
298;DHT22;133;49.626;9.680;2024-02-26T02:11:09;6.70;87.70
298;DHT22;133;49.626;9.680;2024-02-26T02:13:37;6.70;87.40
298;DHT22;133;49.626;9.680;2024-02-26T02:16:03;6.60;87.70
298;DHT22;133;49.626;9.680;2024-02-26T02:18:29;6.60;87.70
298;DHT22;133;49.626;9.680;2024-02-26T02:20:55;6.50;88.20
298;DHT22;133;49.626;9.680;2024-02-26T02:23:22;6.60;88.10
298;DHT22;133;49.626;9.680;2024-02-26T02:25:48;6.60;88.00
298;DHT22;133;49.626;9.680;2024-02-26T02:28:13;6.70;87.70
298;DHT22;133;49.626;9.680;2024-02-26T02:30:39;6.60;88.00
298;DHT22;133;49.626;9.680;2024-02-26T02:33:06;6.60;88.00
298;DHT22;133;49.626;9.680;2024-02-26T02:35:31;6.50;88.20
298;DHT22;133;49.626;9.680;2024-02-26T02:37:57;6.60;88.10
298;DHT22;133;49.626;9.680;2024-02-26T02:40:24;6.50;88.30
298;DHT22;133;49.626;9.680;2024-02-26T02:42:49;6.60;88.00
298;DHT22;133;49.626;9.680;2024-02-26T02:45:15;6.50;88.10
298;DHT22;133;49.626;9.680;2024-02-26T02:47:40;6.50;88.30
298;DHT22;133;49.626;9.680;2024-02-26T02:50:06;6.50;87.30
298;DHT22;133;49.626;9.680;2024-02-26T02:52:32;6.40;87.70
298;DHT22;133;49.626;9.680;2024-02-26T02:54:58;6.40;87.70
298;DHT22;133;49.626;9.680;2024-02-26T02:57:24;6.40;87.60
298;DHT22;133;49.626;9.680;2024-02-26T02:59:49;6.30;87.80
298;DHT22;133;49.626;9.680;2024-02-26T03:02:15;6.30;88.00
298;DHT22;133;49.626;9.680;2024-02-26T03:04:41;6.30;88.10
298;DHT22;133;49.626;9.680;2024-02-26T03:07:06;6.20;88.40
298;DHT22;133;49.626;9.680;2024-02-26T03:09:32;6.20;88.50
298;DHT22;133;49.626;9.680;2024-02-26T03:11:58;6.20;88.50
298;DHT22;133;49.626;9.680;2024-02-26T03:14:23;6.00;89.00
298;DHT22;133;49.626;9.680;2024-02-26T03:16:49;5.90;89.40
298;DHT22;133;49.626;9.680;2024-02-26T03:19:15;6.00;89.30
298;DHT22;133;49.626;9.680;2024-02-26T03:21:43;6.10;89.20
298;DHT22;133;49.626;9.680;2024-02-26T03:24:09;6.10;89.40
298;DHT22;133;49.626;9.680;2024-02-26T03:26:36;6.00;89.60
298;DHT22;133;49.626;9.680;2024-02-26T03:29:02;6.10;89.70
298;DHT22;133;49.626;9.680;2024-02-26T03:31:28;6.20;89.40
298;DHT22;133;49.626;9.680;2024-02-26T03:33:54;6.10;89.50
298;DHT22;133;49.626;9.680;2024-02-26T03:36:19;6.20;89.50
298;DHT22;133;49.626;9.680;2024-02-26T03:38:47;6.10;89.30
298;DHT22;133;49.626;9.680;2024-02-26T03:41:12;6.20;89.50
298;DHT22;133;49.626;9.680;2024-02-26T03:43:38;6.30;89.40
298;DHT22;133;49.626;9.680;2024-02-26T03:46:06;6.30;89.40
298;DHT22;133;49.626;9.680;2024-02-26T03:48:32;6.30;89.20
298;DHT22;133;49.626;9.680;2024-02-26T03:50:58;6.30;89.20
298;DHT22;133;49.626;9.680;2024-02-26T03:53:23;6.40;89.10
298;DHT22;133;49.626;9.680;2024-02-26T03:55:49;6.30;89.00
298;DHT22;133;49.626;9.680;2024-02-26T03:58:17;6.30;88.80
298;DHT22;133;49.626;9.680;2024-02-26T04:00:43;6.20;89.10
298;DHT22;133;49.626;9.680;2024-02-26T04:03:09;6.20;89.00
298;DHT22;133;49.626;9.680;2024-02-26T04:05:34;6.30;89.00
298;DHT22;133;49.626;9.680;2024-02-26T04:08:00;6.30;88.80
298;DHT22;133;49.626;9.680;2024-02-26T04:10:26;6.40;88.40
298;DHT22;133;49.626;9.680;2024-02-26T04:12:51;6.30;88.90
298;DHT22;133;49.626;9.680;2024-02-26T04:15:17;6.30;89.20
298;DHT22;133;49.626;9.680;2024-02-26T04:17:43;6.40;88.90
298;DHT22;133;49.626;9.680;2024-02-26T04:20:13;6.40;88.90
298;DHT22;133;49.626;9.680;2024-02-26T04:22:39;6.40;89.00
298;DHT22;133;49.626;9.680;2024-02-26T04:25:05;6.50;88.10
298;DHT22;133;49.626;9.680;2024-02-26T04:27:31;6.50;87.90
298;DHT22;133;49.626;9.680;2024-02-26T04:29:56;6.10;88.70
298;DHT22;133;49.626;9.680;2024-02-26T04:32:22;5.80;89.90
298;DHT22;133;49.626;9.680;2024-02-26T04:34:48;5.80;90.20
298;DHT22;133;49.626;9.680;2024-02-26T04:37:13;5.80;90.40
298;DHT22;133;49.626;9.680;2024-02-26T04:39:39;5.80;90.40
298;DHT22;133;49.626;9.680;2024-02-26T04:42:04;5.70;90.60
298;DHT22;133;49.626;9.680;2024-02-26T04:44:30;5.60;91.00
298;DHT22;133;49.626;9.680;2024-02-26T04:46:56;5.60;91.10
298;DHT22;133;49.626;9.680;2024-02-26T04:49:22;5.70;91.00
298;DHT22;133;49.626;9.680;2024-02-26T04:51:47;5.70;91.10
298;DHT22;133;49.626;9.680;2024-02-26T04:54:13;5.80;91.00
298;DHT22;133;49.626;9.680;2024-02-26T04:56:39;5.80;91.00
298;DHT22;133;49.626;9.680;2024-02-26T04:59:05;5.80;91.00
298;DHT22;133;49.626;9.680;2024-02-26T05:01:30;5.90;91.00
298;DHT22;133;49.626;9.680;2024-02-26T05:03:56;6.00;91.00
298;DHT22;133;49.626;9.680;2024-02-26T05:06:21;6.10;90.50
298;DHT22;133;49.626;9.680;2024-02-26T05:08:47;6.10;90.50
298;DHT22;133;49.626;9.680;2024-02-26T05:11:13;6.10;90.50
298;DHT22;133;49.626;9.680;2024-02-26T05:13:38;6.20;90.40
298;DHT22;133;49.626;9.680;2024-02-26T05:16:04;6.30;90.10
298;DHT22;133;49.626;9.680;2024-02-26T05:18:30;6.30;89.30
298;DHT22;133;49.626;9.680;2024-02-26T05:20:56;6.30;89.60
298;DHT22;133;49.626;9.680;2024-02-26T05:23:22;6.30;89.60
298;DHT22;133;49.626;9.680;2024-02-26T05:25:48;6.40;89.30
298;DHT22;133;49.626;9.680;2024-02-26T05:28:14;6.30;89.10
298;DHT22;133;49.626;9.680;2024-02-26T05:30:42;6.30;89.30
298;DHT22;133;49.626;9.680;2024-02-26T05:33:07;6.30;89.60
298;DHT22;133;49.626;9.680;2024-02-26T05:35:33;6.30;89.70
298;DHT22;133;49.626;9.680;2024-02-26T05:37:59;6.20;89.60
298;DHT22;133;49.626;9.680;2024-02-26T05:40:24;6.20;90.00
298;DHT22;133;49.626;9.680;2024-02-26T05:42:50;6.20;90.00
298;DHT22;133;49.626;9.680;2024-02-26T05:45:16;6.50;89.40
298;DHT22;133;49.626;9.680;2024-02-26T05:47:42;6.50;88.40
298;DHT22;133;49.626;9.680;2024-02-26T05:50:11;6.40;88.80
298;DHT22;133;49.626;9.680;2024-02-26T05:52:40;6.40;89.30
298;DHT22;133;49.626;9.680;2024-02-26T05:55:06;6.40;88.80
298;DHT22;133;49.626;9.680;2024-02-26T05:57:32;6.30;89.30
298;DHT22;133;49.626;9.680;2024-02-26T05:59:58;6.30;89.70
298;DHT22;133;49.626;9.680;2024-02-26T06:02:29;6.20;90.20
298;DHT22;133;49.626;9.680;2024-02-26T06:04:54;6.30;90.00
298;DHT22;133;49.626;9.680;2024-02-26T06:07:20;6.40;89.40
298;DHT22;133;49.626;9.680;2024-02-26T06:09:46;6.50;89.00
298;DHT22;133;49.626;9.680;2024-02-26T06:12:11;6.20;89.60
298;DHT22;133;49.626;9.680;2024-02-26T06:14:37;6.30;89.60
298;DHT22;133;49.626;9.680;2024-02-26T06:17:02;6.20;89.70
298;DHT22;133;49.626;9.680;2024-02-26T06:19:28;6.30;89.80
298;DHT22;133;49.626;9.680;2024-02-26T06:21:54;6.20;89.80
298;DHT22;133;49.626;9.680;2024-02-26T06:24:19;6.20;90.40
298;DHT22;133;49.626;9.680;2024-02-26T06:26:47;6.20;90.60
298;DHT22;133;49.626;9.680;2024-02-26T06:29:14;6.30;90.20
298;DHT22;133;49.626;9.680;2024-02-26T06:31:40;6.40;90.00
298;DHT22;133;49.626;9.680;2024-02-26T06:34:05;6.30;90.60
298;DHT22;133;49.626;9.680;2024-02-26T06:36:31;6.10;91.20
298;DHT22;133;49.626;9.680;2024-02-26T06:38:57;6.20;91.10
298;DHT22;133;49.626;9.680;2024-02-26T06:41:23;6.10;91.20
298;DHT22;133;49.626;9.680;2024-02-26T06:43:53;6.10;91.60
298;DHT22;133;49.626;9.680;2024-02-26T06:46:19;6.20;91.90
298;DHT22;133;49.626;9.680;2024-02-26T06:48:45;6.30;92.00
298;DHT22;133;49.626;9.680;2024-02-26T06:51:10;6.30;92.00
298;DHT22;133;49.626;9.680;2024-02-26T06:53:36;6.30;92.30
298;DHT22;133;49.626;9.680;2024-02-26T06:56:01;6.40;92.40
298;DHT22;133;49.626;9.680;2024-02-26T06:58:27;6.40;92.30
298;DHT22;133;49.626;9.680;2024-02-26T07:00:52;6.40;92.40
298;DHT22;133;49.626;9.680;2024-02-26T07:03:18;6.40;92.40
298;DHT22;133;49.626;9.680;2024-02-26T07:05:44;6.40;92.20
298;DHT22;133;49.626;9.680;2024-02-26T07:08:11;6.50;92.00
298;DHT22;133;49.626;9.680;2024-02-26T07:10:37;6.50;92.30
298;DHT22;133;49.626;9.680;2024-02-26T07:13:02;6.50;92.20
298;DHT22;133;49.626;9.680;2024-02-26T07:15:28;6.60;92.40
298;DHT22;133;49.626;9.680;2024-02-26T07:17:54;6.60;92.50
298;DHT22;133;49.626;9.680;2024-02-26T07:20:20;6.70;92.70
298;DHT22;133;49.626;9.680;2024-02-26T07:22:45;6.70;92.50
298;DHT22;133;49.626;9.680;2024-02-26T07:25:11;6.70;93.00
298;DHT22;133;49.626;9.680;2024-02-26T07:27:39;6.70;92.70
298;DHT22;133;49.626;9.680;2024-02-26T07:30:07;6.70;92.50
298;DHT22;133;49.626;9.680;2024-02-26T07:32:36;6.90;91.80
298;DHT22;133;49.626;9.680;2024-02-26T07:35:01;6.90;91.20
298;DHT22;133;49.626;9.680;2024-02-26T07:37:27;6.80;91.60
298;DHT22;133;49.626;9.680;2024-02-26T07:39:53;6.70;92.00
298;DHT22;133;49.626;9.680;2024-02-26T07:42:19;6.60;92.60
298;DHT22;133;49.626;9.680;2024-02-26T07:44:45;6.60;93.10
298;DHT22;133;49.626;9.680;2024-02-26T07:47:10;6.70;93.60
298;DHT22;133;49.626;9.680;2024-02-26T07:49:36;6.70;94.30
298;DHT22;133;49.626;9.680;2024-02-26T07:52:02;6.80;93.20
298;DHT22;133;49.626;9.680;2024-02-26T07:54:27;6.90;93.40
298;DHT22;133;49.626;9.680;2024-02-26T07:56:53;7.00;93.80
298;DHT22;133;49.626;9.680;2024-02-26T07:59:18;7.00;94.00
298;DHT22;133;49.626;9.680;2024-02-26T08:01:48;7.00;94.30
298;DHT22;133;49.626;9.680;2024-02-26T08:04:14;7.10;94.20
298;DHT22;133;49.626;9.680;2024-02-26T08:06:40;7.00;93.70
298;DHT22;133;49.626;9.680;2024-02-26T08:09:05;7.20;92.70
298;DHT22;133;49.626;9.680;2024-02-26T08:11:32;7.30;91.70
298;DHT22;133;49.626;9.680;2024-02-26T08:13:57;7.20;92.30
298;DHT22;133;49.626;9.680;2024-02-26T08:16:24;7.10;93.40
298;DHT22;133;49.626;9.680;2024-02-26T08:18:50;7.20;94.00
298;DHT22;133;49.626;9.680;2024-02-26T08:21:15;7.30;93.90
298;DHT22;133;49.626;9.680;2024-02-26T08:23:43;7.40;93.80
298;DHT22;133;49.626;9.680;2024-02-26T08:26:09;7.40;93.00
298;DHT22;133;49.626;9.680;2024-02-26T08:28:39;7.40;92.90
298;DHT22;133;49.626;9.680;2024-02-26T08:31:05;7.50;93.00
298;DHT22;133;49.626;9.680;2024-02-26T08:33:31;7.60;93.20
298;DHT22;133;49.626;9.680;2024-02-26T08:35:56;7.70;93.10
298;DHT22;133;49.626;9.680;2024-02-26T08:38:22;7.70;93.20
298;DHT22;133;49.626;9.680;2024-02-26T08:40:48;7.70;93.10
298;DHT22;133;49.626;9.680;2024-02-26T08:43:14;7.80;93.10
298;DHT22;133;49.626;9.680;2024-02-26T08:45:39;7.80;92.50
298;DHT22;133;49.626;9.680;2024-02-26T08:48:05;7.80;93.20
298;DHT22;133;49.626;9.680;2024-02-26T08:50:31;7.90;92.90
298;DHT22;133;49.626;9.680;2024-02-26T08:52:57;8.10;92.70
298;DHT22;133;49.626;9.680;2024-02-26T08:55:22;8.10;92.00
298;DHT22;133;49.626;9.680;2024-02-26T08:57:48;8.20;91.50
298;DHT22;133;49.626;9.680;2024-02-26T09:00:14;8.20;91.00
298;DHT22;133;49.626;9.680;2024-02-26T09:02:41;8.30;90.80
298;DHT22;133;49.626;9.680;2024-02-26T09:05:09;8.50;90.90
298;DHT22;133;49.626;9.680;2024-02-26T09:07:35;8.60;90.70
298;DHT22;133;49.626;9.680;2024-02-26T09:10:02;8.60;90.20
298;DHT22;133;49.626;9.680;2024-02-26T09:12:27;8.50;90.90
298;DHT22;133;49.626;9.680;2024-02-26T09:14:54;8.40;90.10
298;DHT22;133;49.626;9.680;2024-02-26T09:17:21;8.40;90.40
298;DHT22;133;49.626;9.680;2024-02-26T09:19:47;8.40;90.20
298;DHT22;133;49.626;9.680;2024-02-26T09:22:12;8.30;91.10
298;DHT22;133;49.626;9.680;2024-02-26T09:24:38;8.20;91.30
298;DHT22;133;49.626;9.680;2024-02-26T09:27:04;8.20;92.20
298;DHT22;133;49.626;9.680;2024-02-26T09:29:30;8.40;90.90
298;DHT22;133;49.626;9.680;2024-02-26T09:31:55;8.40;90.70
298;DHT22;133;49.626;9.680;2024-02-26T09:34:21;8.40;90.80
298;DHT22;133;49.626;9.680;2024-02-26T09:36:46;8.40;91.00
298;DHT22;133;49.626;9.680;2024-02-26T09:39:12;8.40;91.30
298;DHT22;133;49.626;9.680;2024-02-26T09:41:40;8.50;91.00
298;DHT22;133;49.626;9.680;2024-02-26T09:44:06;8.60;90.70
298;DHT22;133;49.626;9.680;2024-02-26T09:46:31;8.70;90.80
298;DHT22;133;49.626;9.680;2024-02-26T09:48:58;9.00;90.70
298;DHT22;133;49.626;9.680;2024-02-26T09:51:23;9.10;90.00
298;DHT22;133;49.626;9.680;2024-02-26T09:53:52;9.30;89.10
298;DHT22;133;49.626;9.680;2024-02-26T09:56:19;9.40;88.80
298;DHT22;133;49.626;9.680;2024-02-26T09:58:45;9.60;88.50
298;DHT22;133;49.626;9.680;2024-02-26T10:01:18;9.80;87.90
298;DHT22;133;49.626;9.680;2024-02-26T10:03:52;9.90;87.20
298;DHT22;133;49.626;9.680;2024-02-26T10:06:21;10.00;86.90
298;DHT22;133;49.626;9.680;2024-02-26T10:08:47;10.00;86.90
298;DHT22;133;49.626;9.680;2024-02-26T10:11:14;10.00;86.40
298;DHT22;133;49.626;9.680;2024-02-26T10:13:40;10.10;86.40
298;DHT22;133;49.626;9.680;2024-02-26T10:16:07;10.20;86.30
298;DHT22;133;49.626;9.680;2024-02-26T10:18:49;10.20;85.60
298;DHT22;133;49.626;9.680;2024-02-26T10:21:21;10.30;85.10
298;DHT22;133;49.626;9.680;2024-02-26T10:23:48;10.30;85.30
298;DHT22;133;49.626;9.680;2024-02-26T10:26:14;10.40;84.90
298;DHT22;133;49.626;9.680;2024-02-26T10:28:42;10.30;84.10
298;DHT22;133;49.626;9.680;2024-02-26T10:31:09;10.40;84.80
298;DHT22;133;49.626;9.680;2024-02-26T10:33:36;10.50;84.60
298;DHT22;133;49.626;9.680;2024-02-26T10:36:05;10.60;84.40
298;DHT22;133;49.626;9.680;2024-02-26T10:38:35;10.70;83.80
298;DHT22;133;49.626;9.680;2024-02-26T10:41:06;10.70;84.10
298;DHT22;133;49.626;9.680;2024-02-26T10:43:31;10.80;83.80
298;DHT22;133;49.626;9.680;2024-02-26T10:45:57;10.70;84.30
298;DHT22;133;49.626;9.680;2024-02-26T10:48:24;10.70;85.00
298;DHT22;133;49.626;9.680;2024-02-26T10:50:49;10.70;84.40
298;DHT22;133;49.626;9.680;2024-02-26T10:53:28;10.80;84.50
298;DHT22;133;49.626;9.680;2024-02-26T10:56:02;10.70;84.50
298;DHT22;133;49.626;9.680;2024-02-26T10:58:29;10.70;85.10
298;DHT22;133;49.626;9.680;2024-02-26T11:00:57;10.80;84.60
298;DHT22;133;49.626;9.680;2024-02-26T11:03:23;11.00;84.20
298;DHT22;133;49.626;9.680;2024-02-26T11:05:50;11.20;83.80
298;DHT22;133;49.626;9.680;2024-02-26T11:08:19;11.20;83.80
298;DHT22;133;49.626;9.680;2024-02-26T11:10:53;11.40;83.30
298;DHT22;133;49.626;9.680;2024-02-26T11:13:21;11.40;83.50
298;DHT22;133;49.626;9.680;2024-02-26T11:15:47;11.70;82.90
298;DHT22;133;49.626;9.680;2024-02-26T11:18:15;11.70;82.80
298;DHT22;133;49.626;9.680;2024-02-26T11:20:42;11.80;82.80
298;DHT22;133;49.626;9.680;2024-02-26T11:23:08;12.10;82.10
298;DHT22;133;49.626;9.680;2024-02-26T11:25:35;12.30;81.60
298;DHT22;133;49.626;9.680;2024-02-26T11:28:05;12.30;80.60
298;DHT22;133;49.626;9.680;2024-02-26T11:30:34;12.40;80.10
298;DHT22;133;49.626;9.680;2024-02-26T11:33:01;12.40;80.60
298;DHT22;133;49.626;9.680;2024-02-26T11:35:28;12.40;80.20
298;DHT22;133;49.626;9.680;2024-02-26T11:37:55;12.60;79.30
298;DHT22;133;49.626;9.680;2024-02-26T11:40:25;13.00;79.70
298;DHT22;133;49.626;9.680;2024-02-26T11:42:51;13.40;79.40
298;DHT22;133;49.626;9.680;2024-02-26T11:48:12;14.10;76.40
298;DHT22;133;49.626;9.680;2024-02-26T11:50:42;13.90;76.20
298;DHT22;133;49.626;9.680;2024-02-26T11:56:34;13.90;76.00
298;DHT22;133;49.626;9.680;2024-02-26T11:58:34;13.90;75.40
298;DHT22;133;49.626;9.680;2024-02-26T12:01:00;13.90;74.60
298;DHT22;133;49.626;9.680;2024-02-26T12:03:25;13.90;75.40
298;DHT22;133;49.626;9.680;2024-02-26T12:05:52;13.90;74.60
298;DHT22;133;49.626;9.680;2024-02-26T12:08:17;13.90;75.20
298;DHT22;133;49.626;9.680;2024-02-26T12:10:46;13.90;75.10
298;DHT22;133;49.626;9.680;2024-02-26T12:13:15;13.90;75.10
298;DHT22;133;49.626;9.680;2024-02-26T12:15:44;13.80;75.00
298;DHT22;133;49.626;9.680;2024-02-26T12:18:15;13.70;75.50
298;DHT22;133;49.626;9.680;2024-02-26T12:20:42;13.70;75.00
298;DHT22;133;49.626;9.680;2024-02-26T12:23:15;13.70;75.00
298;DHT22;133;49.626;9.680;2024-02-26T12:25:43;13.70;75.20
298;DHT22;133;49.626;9.680;2024-02-26T12:28:09;13.80;74.50
298;DHT22;133;49.626;9.680;2024-02-26T12:30:35;13.80;75.00
298;DHT22;133;49.626;9.680;2024-02-26T12:33:01;13.70;74.10
298;DHT22;133;49.626;9.680;2024-02-26T12:35:27;13.50;74.40
298;DHT22;133;49.626;9.680;2024-02-26T12:37:56;13.40;74.70
298;DHT22;133;49.626;9.680;2024-02-26T12:40:22;13.10;75.70
298;DHT22;133;49.626;9.680;2024-02-26T12:42:47;13.00;75.30
298;DHT22;133;49.626;9.680;2024-02-26T12:45:14;13.10;75.80
298;DHT22;133;49.626;9.680;2024-02-26T12:47:45;13.20;75.30
298;DHT22;133;49.626;9.680;2024-02-26T12:50:15;13.20;76.00
298;DHT22;133;49.626;9.680;2024-02-26T12:52:44;13.00;76.10
298;DHT22;133;49.626;9.680;2024-02-26T12:55:14;13.20;75.90
298;DHT22;133;49.626;9.680;2024-02-26T12:57:42;13.30;74.90
298;DHT22;133;49.626;9.680;2024-02-26T13:00:13;13.50;74.30
298;DHT22;133;49.626;9.680;2024-02-26T13:02:41;13.70;74.30
298;DHT22;133;49.626;9.680;2024-02-26T13:05:10;13.80;73.20
298;DHT22;133;49.626;9.680;2024-02-26T13:07:41;14.00;73.30
298;DHT22;133;49.626;9.680;2024-02-26T13:10:08;14.30;72.80
298;DHT22;133;49.626;9.680;2024-02-26T13:12:34;14.70;71.80
298;DHT22;133;49.626;9.680;2024-02-26T13:15:01;14.80;71.10
298;DHT22;133;49.626;9.680;2024-02-26T13:17:27;15.00;70.50
298;DHT22;133;49.626;9.680;2024-02-26T13:19:54;15.20;69.80
298;DHT22;133;49.626;9.680;2024-02-26T13:22:22;15.20;69.10
298;DHT22;133;49.626;9.680;2024-02-26T13:24:58;15.10;69.40
298;DHT22;133;49.626;9.680;2024-02-26T13:27:24;15.20;69.80
298;DHT22;133;49.626;9.680;2024-02-26T13:30:09;15.40;69.30
298;DHT22;133;49.626;9.680;2024-02-26T13:32:37;15.50;69.80
298;DHT22;133;49.626;9.680;2024-02-26T13:35:09;15.60;69.10
298;DHT22;133;49.626;9.680;2024-02-26T13:37:35;15.70;68.90
298;DHT22;133;49.626;9.680;2024-02-26T13:40:08;16.20;68.80
298;DHT22;133;49.626;9.680;2024-02-26T13:42:35;16.50;66.80
298;DHT22;133;49.626;9.680;2024-02-26T13:45:02;16.70;66.30
298;DHT22;133;49.626;9.680;2024-02-26T13:47:28;16.60;65.80
298;DHT22;133;49.626;9.680;2024-02-26T13:49:53;16.60;65.80
298;DHT22;133;49.626;9.680;2024-02-26T13:52:19;16.60;65.70
298;DHT22;133;49.626;9.680;2024-02-26T13:54:47;16.60;66.20
298;DHT22;133;49.626;9.680;2024-02-26T13:57:13;16.50;65.70
298;DHT22;133;49.626;9.680;2024-02-26T13:59:39;16.40;65.80
298;DHT22;133;49.626;9.680;2024-02-26T14:02:10;16.60;65.70
298;DHT22;133;49.626;9.680;2024-02-26T14:04:37;16.60;65.40
298;DHT22;133;49.626;9.680;2024-02-26T14:07:02;17.10;65.60
298;DHT22;133;49.626;9.680;2024-02-26T14:09:29;17.40;65.50
298;DHT22;133;49.626;9.680;2024-02-26T14:11:54;17.80;64.00
298;DHT22;133;49.626;9.680;2024-02-26T14:14:20;18.10;62.10
298;DHT22;133;49.626;9.680;2024-02-26T14:16:45;18.00;62.30
298;DHT22;133;49.626;9.680;2024-02-26T14:19:11;18.00;61.80
298;DHT22;133;49.626;9.680;2024-02-26T14:21:37;17.90;62.00
298;DHT22;133;49.626;9.680;2024-02-26T14:24:03;17.90;61.30
298;DHT22;133;49.626;9.680;2024-02-26T14:26:29;18.10;61.40
298;DHT22;133;49.626;9.680;2024-02-26T14:28:55;18.20;60.70
298;DHT22;133;49.626;9.680;2024-02-26T14:31:21;18.20;61.10
298;DHT22;133;49.626;9.680;2024-02-26T14:33:47;18.30;60.90
298;DHT22;133;49.626;9.680;2024-02-26T14:36:13;18.20;60.40
298;DHT22;133;49.626;9.680;2024-02-26T14:38:39;18.30;60.80
298;DHT22;133;49.626;9.680;2024-02-26T14:41:05;18.60;60.50
298;DHT22;133;49.626;9.680;2024-02-26T14:43:31;18.20;60.80
298;DHT22;133;49.626;9.680;2024-02-26T14:45:58;18.60;60.50
298;DHT22;133;49.626;9.680;2024-02-26T14:48:24;19.10;59.30
298;DHT22;133;49.626;9.680;2024-02-26T14:50:50;18.90;59.70
298;DHT22;133;49.626;9.680;2024-02-26T14:53:16;18.70;60.00
298;DHT22;133;49.626;9.680;2024-02-26T14:55:42;18.60;59.80
298;DHT22;133;49.626;9.680;2024-02-26T14:58:08;18.20;61.50
298;DHT22;133;49.626;9.680;2024-02-26T15:00:36;18.50;60.40
298;DHT22;133;49.626;9.680;2024-02-26T15:03:02;18.60;59.90
298;DHT22;133;49.626;9.680;2024-02-26T15:05:28;18.00;60.70
298;DHT22;133;49.626;9.680;2024-02-26T15:07:54;17.80;61.10
298;DHT22;133;49.626;9.680;2024-02-26T15:10:20;17.70;61.10
298;DHT22;133;49.626;9.680;2024-02-26T15:12:45;17.50;61.60
298;DHT22;133;49.626;9.680;2024-02-26T15:15:11;17.40;61.50
298;DHT22;133;49.626;9.680;2024-02-26T15:17:37;17.20;61.80
298;DHT22;133;49.626;9.680;2024-02-26T15:20:03;16.60;62.40
298;DHT22;133;49.626;9.680;2024-02-26T15:22:29;16.40;62.90
298;DHT22;133;49.626;9.680;2024-02-26T15:24:54;16.20;63.30
298;DHT22;133;49.626;9.680;2024-02-26T15:27:20;16.00;64.20
298;DHT22;133;49.626;9.680;2024-02-26T15:29:45;15.70;63.90
298;DHT22;133;49.626;9.680;2024-02-26T15:32:11;15.30;65.30
298;DHT22;133;49.626;9.680;2024-02-26T15:34:37;15.30;65.60
298;DHT22;133;49.626;9.680;2024-02-26T15:37:03;15.20;66.30
298;DHT22;133;49.626;9.680;2024-02-26T15:39:29;15.10;65.80
298;DHT22;133;49.626;9.680;2024-02-26T15:41:55;15.10;66.40
298;DHT22;133;49.626;9.680;2024-02-26T15:44:20;15.10;66.70
298;DHT22;133;49.626;9.680;2024-02-26T15:46:46;15.10;66.60
298;DHT22;133;49.626;9.680;2024-02-26T15:49:11;14.90;66.60
298;DHT22;133;49.626;9.680;2024-02-26T15:51:37;14.80;67.10
298;DHT22;133;49.626;9.680;2024-02-26T15:54:03;14.70;67.20
298;DHT22;133;49.626;9.680;2024-02-26T15:56:28;14.60;67.40
298;DHT22;133;49.626;9.680;2024-02-26T15:58:54;14.50;67.80
298;DHT22;133;49.626;9.680;2024-02-26T16:01:20;14.60;68.00
298;DHT22;133;49.626;9.680;2024-02-26T16:03:46;14.50;68.20
298;DHT22;133;49.626;9.680;2024-02-26T16:06:30;14.40;68.50
298;DHT22;133;49.626;9.680;2024-02-26T16:08:57;14.30;68.60
298;DHT22;133;49.626;9.680;2024-02-26T16:11:22;14.10;69.10
298;DHT22;133;49.626;9.680;2024-02-26T16:13:50;14.00;69.10
298;DHT22;133;49.626;9.680;2024-02-26T16:16:20;14.00;69.30
298;DHT22;133;49.626;9.680;2024-02-26T16:18:49;13.90;69.60
298;DHT22;133;49.626;9.680;2024-02-26T16:21:15;13.70;70.20
298;DHT22;133;49.626;9.680;2024-02-26T16:23:40;13.60;70.10
298;DHT22;133;49.626;9.680;2024-02-26T16:26:06;13.60;70.30
298;DHT22;133;49.626;9.680;2024-02-26T16:28:31;13.60;70.60
298;DHT22;133;49.626;9.680;2024-02-26T16:30:57;13.50;70.90
298;DHT22;133;49.626;9.680;2024-02-26T16:33:23;13.40;71.00
298;DHT22;133;49.626;9.680;2024-02-26T16:35:49;13.30;71.30
298;DHT22;133;49.626;9.680;2024-02-26T16:38:14;13.20;71.70
298;DHT22;133;49.626;9.680;2024-02-26T16:40:41;13.20;71.90
298;DHT22;133;49.626;9.680;2024-02-26T16:43:06;13.10;72.10
298;DHT22;133;49.626;9.680;2024-02-26T16:45:32;13.10;71.90